Time;durP1;ratioP1;P1;durP2;ratioP2;P2;SDS_P1;SDS_P2;PMS_P1;PMS_P2;Temp;Humidity;BMP_temperature;BMP_pressure;BME280_temperature;BME280_humidity;BME280_pressure;Samples;Min_cycle;Max_cycle;Signal;HPM_P1;HPM_P2
2023/12/10 00:02:17;;;;;;;20.03;13.33;;;;;;;-10.96;100.00;102351.00;5053268;28;20407;-68
2023/12/10 00:04:43;;;;;;;22.50;13.53;;;;;;;-10.93;100.00;102339.00;5052928;28;20033;-65
2023/12/10 00:07:13;;;;;;;19.05;12.35;;;;;;;-11.05;99.73;102347.47;5053171;28;20143;-68
2023/12/10 00:09:39;;;;;;;19.45;12.52;;;;;;;-10.92;100.00;102356.19;5052793;28;20416;-69
2023/12/10 00:12:05;;;;;;;19.23;11.40;;;;;;;-11.17;100.00;102324.25;5051303;28;20025;-66
2023/12/10 00:14:30;;;;;;;20.53;11.70;;;;;;;-11.11;100.00;102348.28;5053218;28;20045;-67
2023/12/10 00:16:56;;;;;;;22.27;14.07;;;;;;;-11.08;100.00;102338.03;5051767;28;20279;-69
2023/12/10 00:19:21;;;;;;;19.90;11.67;;;;;;;-10.96;100.00;102338.16;5051042;28;20852;-66
2023/12/10 00:21:47;;;;;;;21.00;12.73;;;;;;;-10.90;99.56;102349.31;5052561;28;20033;-67
2023/12/10 00:24:13;;;;;;;18.57;11.60;;;;;;;-10.91;99.87;102351.03;5052897;28;20040;-66
2023/12/10 00:26:38;;;;;;;21.77;14.27;;;;;;;-10.95;100.00;102344.16;5052782;28;20029;-68
2023/12/10 00:29:04;;;;;;;18.93;12.60;;;;;;;-11.19;100.00;102313.94;5053030;28;20083;-66
2023/12/10 00:31:29;;;;;;;17.43;12.40;;;;;;;-11.14;100.00;102319.97;5052490;28;20045;-67
2023/12/10 00:33:55;;;;;;;24.70;13.73;;;;;;;-11.09;100.00;102343.16;5052698;28;20090;-66
2023/12/10 00:36:21;;;;;;;22.47;12.70;;;;;;;-11.16;100.00;102320.81;5051830;28;20055;-66
2023/12/10 00:38:48;;;;;;;22.20;12.90;;;;;;;-11.22;100.00;102307.91;5052567;28;20033;-68
2023/12/10 00:41:14;;;;;;;19.50;12.77;;;;;;;-11.16;100.00;102328.53;5052570;28;20069;-68
2023/12/10 00:43:40;;;;;;;20.60;13.23;;;;;;;-11.17;100.00;102327.69;5052779;28;20476;-68
2023/12/10 00:46:06;;;;;;;17.13;11.15;;;;;;;-11.15;100.00;102327.69;5052717;28;20424;-68
2023/12/10 00:48:33;;;;;;;18.83;11.57;;;;;;;-11.15;100.00;102323.41;5052579;28;20076;-66
2023/12/10 00:50:59;;;;;;;18.55;12.43;;;;;;;-11.12;100.00;102322.56;5052685;28;20040;-67
2023/12/10 00:53:25;;;;;;;18.60;12.43;;;;;;;-11.34;100.00;102276.09;5052618;28;20405;-68
2023/12/10 00:55:51;;;;;;;23.70;13.67;;;;;;;-11.16;100.00;102295.97;5052525;28;20041;-67
2023/12/10 00:58:17;;;;;;;19.33;9.32;;;;;;;-11.07;100.00;102316.59;5035930;28;20496;-67
2023/12/10 01:00:42;;;;;;;18.67;10.90;;;;;;;-11.24;100.00;102269.31;5054220;28;20081;-66
2023/12/10 01:03:08;;;;;;;16.87;10.80;;;;;;;-10.98;100.00;102296.09;5053284;28;20070;-67
2023/12/10 01:05:36;;;;;;;21.30;12.83;;;;;;;-11.01;100.00;102275.47;5052301;28;20068;-65
2023/12/10 01:08:03;;;;;;;17.13;11.63;;;;;;;-10.87;100.00;102305.59;5050897;28;20567;-70
2023/12/10 01:10:29;;;;;;;19.20;11.10;;;;;;;-11.13;100.00;102270.25;5051038;28;20043;-64
2023/12/10 01:12:56;;;;;;;15.80;11.52;;;;;;;-10.88;100.00;102301.31;5052371;28;20040;-68
2023/12/10 01:15:29;;;;;;;18.30;11.93;;;;;;;-11.03;100.00;102264.31;5054412;28;20040;-65
2023/12/10 01:18:03;;;;;;;25.75;12.35;;;;;;;-11.00;100.00;102282.34;5053708;28;20041;-68
2023/12/10 01:20:33;;;;;;;21.00;11.13;;;;;;;-10.89;100.00;102295.28;5050156;28;20040;-65
2023/12/10 01:22:59;;;;;;;25.05;12.57;;;;;;;-11.15;100.00;102251.38;5051559;28;20041;-69
2023/12/10 01:25:25;;;;;;;18.52;11.45;;;;;;;-10.88;100.00;102299.59;5051803;28;20032;-67
2023/12/10 01:27:52;;;;;;;20.58;11.23;;;;;;;-11.00;100.00;102266.91;5051817;28;20037;-68
2023/12/10 01:30:23;;;;;;;21.38;11.00;;;;;;;-10.84;100.00;102261.88;5051367;28;20028;-67
2023/12/10 01:33:07;;;;;;;17.92;10.82;;;;;;;-10.59;100.00;102279.16;5051612;28;20125;-67
2023/12/10 01:35:32;;;;;;;21.92;12.77;;;;;;;-10.49;100.00;102286.06;5051431;28;20037;-68
2023/12/10 01:37:58;;;;;;;25.30;12.30;;;;;;;-10.58;98.25;102275.75;5051323;28;20025;-67
2023/12/10 01:40:23;;;;;;;25.13;11.77;;;;;;;-10.61;98.24;102285.16;5051472;28;20029;-67
2023/12/10 01:42:49;;;;;;;15.33;11.43;;;;;;;-10.93;99.12;102236.09;5052035;28;20071;-67
2023/12/10 01:45:18;;;;;;;23.63;13.68;;;;;;;-10.79;97.73;102262.75;5054114;28;20045;-66
2023/12/10 01:47:46;;;;;;;17.75;12.00;;;;;;;-10.86;98.25;102284.16;5053977;28;20484;-68
2023/12/10 01:50:13;;;;;;;19.17;11.82;;;;;;;-11.00;99.29;102261.75;5054745;28;20128;-66
2023/12/10 01:52:40;;;;;;;21.10;12.23;;;;;;;-11.10;99.14;102265.13;5053087;28;20033;-66
2023/12/10 01:55:09;;;;;;;13.75;9.32;;;;;;;-11.06;98.76;102269.44;5055660;28;20063;-67
2023/12/10 01:57:35;;;;;;;23.42;12.77;;;;;;;-11.06;98.21;102264.28;5055730;28;20041;-67
2023/12/10 02:00:06;;;;;;;19.25;11.75;;;;;;;-10.98;98.60;102270.38;5050678;28;20123;-69
2023/12/10 02:02:33;;;;;;;16.05;10.50;;;;;;;-10.99;97.70;102258.34;5051300;28;20095;-66
2023/12/10 02:05:04;;;;;;;24.02;13.55;;;;;;;-11.11;97.62;102258.25;5051411;28;20083;-68
2023/12/10 02:07:31;;;;;;;18.77;11.07;;;;;;;-11.00;99.00;102269.47;5050363;28;20044;-64
2023/12/10 02:09:57;;;;;;;19.77;10.38;;;;;;;-11.16;98.66;102233.38;5051865;28;20048;-65
2023/12/10 02:12:23;;;;;;;16.20;10.87;;;;;;;-10.90;97.98;102274.69;5050460;28;20039;-68
2023/12/10 02:14:49;;;;;;;16.05;10.60;;;;;;;-10.91;97.93;102266.13;5049832;28;20033;-66
2023/12/10 02:17:15;;;;;;;18.43;9.97;;;;;;;-10.85;97.65;102261.00;5051254;28;20029;-68
2023/12/10 02:19:41;;;;;;;16.73;11.53;;;;;;;-11.01;96.94;102244.59;5033490;28;20268;-65
2023/12/10 02:22:11;;;;;;;21.97;14.37;;;;;;;-10.83;96.62;102276.47;5051121;28;20029;-66
2023/12/10 02:25:05;;;;;;;15.55;10.25;;;;;;;-10.89;98.09;102279.00;5050967;28;20454;-67
2023/12/10 02:27:31;;;;;;;15.85;10.27;;;;;;;-10.98;98.48;102280.66;5050570;28;20444;-67
2023/12/10 02:29:57;;;;;;;17.92;10.77;;;;;;;-11.01;99.99;102265.19;5050947;28;20448;-67
2023/12/10 02:32:22;;;;;;;20.42;10.85;;;;;;;-10.99;99.63;102263.47;5052007;28;20033;-68
2023/12/10 02:34:48;;;;;;;17.53;10.20;;;;;;;-11.16;99.39;102233.38;5051588;28;20432;-68
2023/12/10 02:37:14;;;;;;;18.70;11.13;;;;;;;-10.87;100.00;102277.28;5050930;28;20382;-65
2023/12/10 02:39:39;;;;;;;17.47;10.40;;;;;;;-10.92;99.18;102278.97;5050604;28;20055;-71
2023/12/10 02:42:05;;;;;;;16.00;9.70;;;;;;;-10.96;99.92;102268.66;5050163;28;20029;-65
2023/12/10 02:44:31;;;;;;;14.30;10.13;;;;;;;-10.88;99.36;102280.72;5054848;28;20086;-65
2023/12/10 02:46:56;;;;;;;16.20;10.67;;;;;;;-10.96;99.18;102289.25;5054757;28;20540;-64
2023/12/10 02:49:22;;;;;;;18.00;10.73;;;;;;;-11.30;100.00;102225.53;5054798;28;20037;-67
2023/12/10 02:51:47;;;;;;;23.47;11.80;;;;;;;-11.14;99.77;102258.25;5055424;28;20365;-66
2023/12/10 02:54:13;;;;;;;19.77;11.07;;;;;;;-10.99;100.00;102278.06;5055170;28;20032;-69
2023/12/10 02:56:39;;;;;;;22.57;11.77;;;;;;;-11.21;100.00;102225.63;5057711;28;20040;-65
2023/12/10 02:59:04;;;;;;;15.27;10.00;;;;;;;-11.00;100.00;102261.75;5059057;28;20051;-64
2023/12/10 03:01:30;;;;;;;21.47;11.67;;;;;;;-11.07;100.00;102244.56;5055990;28;20045;-65
2023/12/10 03:03:55;;;;;;;16.57;11.20;;;;;;;-10.88;100.00;102275.56;5055506;28;20075;-66
2023/12/10 03:06:21;;;;;;;16.03;10.90;;;;;;;-10.99;100.00;102240.31;5055386;28;20053;-66
2023/12/10 03:08:46;;;;;;;21.13;11.17;;;;;;;-10.80;100.00;102269.59;5054872;28;20496;-66
2023/12/10 03:11:12;;;;;;;17.40;9.70;;;;;;;-10.96;99.13;102253.22;5055266;28;20481;-67
2023/12/10 03:13:38;;;;;;;16.60;10.50;;;;;;;-11.37;99.08;102190.34;5053118;28;20033;-67
2023/12/10 03:16:04;;;;;;;16.90;11.77;;;;;;;-10.86;99.58;102264.44;5053969;28;20082;-67
2023/12/10 03:18:29;;;;;;;14.23;10.17;;;;;;;-10.96;100.00;102236.94;5052823;28;20203;-66
2023/12/10 03:20:55;;;;;;;17.50;9.47;;;;;;;-10.97;100.00;102225.78;5054243;28;20044;-68
2023/12/10 03:23:21;;;;;;;16.57;11.33;;;;;;;-10.73;99.24;102249.91;5054346;28;20369;-66
2023/12/10 03:25:46;;;;;;;15.50;9.83;;;;;;;-10.92;99.06;102223.22;5054292;28;20087;-66
2023/12/10 03:28:13;;;;;;;21.50;12.32;;;;;;;-10.78;98.40;102251.59;5053237;28;20040;-66
2023/12/10 03:30:39;;;;;;;17.30;10.50;;;;;;;-10.98;99.01;102229.22;5054411;28;20037;-67
2023/12/10 03:33:05;;;;;;;17.70;10.60;;;;;;;-10.92;99.13;102255.81;5053332;28;20033;-67
2023/12/10 03:35:30;;;;;;;20.47;10.37;;;;;;;-11.17;99.27;102217.06;5054557;28;20503;-65
2023/12/10 03:37:56;;;;;;;19.60;10.30;;;;;;;-11.05;100.00;102226.56;5054351;28;20040;-66
2023/12/10 03:40:22;;;;;;;17.13;12.10;;;;;;;-11.07;99.27;102236.84;5054674;28;20033;-66
2023/12/10 03:42:47;;;;;;;18.23;11.27;;;;;;;-11.22;99.04;102226.47;5054655;28;20037;-68
2023/12/10 03:45:14;;;;;;;15.70;10.73;;;;;;;-11.28;99.56;102228.97;5054487;28;20028;-67
2023/12/10 03:47:46;;;;;;;15.93;10.45;;;;;;;-11.18;100.00;102248.78;5053609;28;20044;-67
2023/12/10 03:50:13;;;;;;;17.65;10.45;;;;;;;-11.24;100.00;102233.31;5054939;28;20399;-66
2023/12/10 03:52:40;;;;;;;19.88;9.13;;;;;;;-11.53;100.00;102160.25;5053567;28;20060;-66
2023/12/10 03:55:06;;;;;;;19.83;11.25;;;;;;;-10.90;98.79;102254.13;5054198;28;20116;-68
2023/12/10 03:57:32;;;;;;;16.35;9.77;;;;;;;-11.03;98.67;102232.56;5053814;28;20036;-66
2023/12/10 03:59:57;;;;;;;14.50;11.23;;;;;;;-10.98;98.25;102254.94;5053808;28;20082;-67
2023/12/10 04:02:23;;;;;;;14.37;10.00;;;;;;;-11.01;98.58;102260.03;5053851;28;20033;-66
2023/12/10 04:04:49;;;;;;;16.23;10.27;;;;;;;-11.03;98.33;102241.16;5054660;28;20040;-64
2023/12/10 04:07:14;;;;;;;15.57;10.90;;;;;;;-11.07;98.29;102249.72;5054105;28;20701;-66
2023/12/10 04:09:40;;;;;;;21.20;11.73;;;;;;;-11.29;98.66;102212.69;5053234;28;20048;-66
2023/12/10 04:12:06;;;;;;;17.33;10.50;;;;;;;-11.29;98.63;102227.25;5053241;28;20036;-66
2023/12/10 04:14:31;;;;;;;19.52;10.90;;;;;;;-11.29;99.68;102247.84;5053887;28;20033;-66
2023/12/10 04:16:57;;;;;;;16.27;11.70;;;;;;;-11.32;99.98;102246.09;5053912;28;20078;-66
2023/12/10 04:19:23;;;;;;;14.57;10.77;;;;;;;-11.31;100.00;102247.81;5053388;28;20033;-66
2023/12/10 04:21:48;;;;;;;21.27;12.57;;;;;;;-11.37;99.80;102216.94;5054040;28;20130;-65
2023/12/10 04:24:15;;;;;;;18.60;11.07;;;;;;;-11.19;100.00;102233.34;5052827;28;20040;-66
2023/12/10 04:26:41;;;;;;;17.35;11.25;;;;;;;-11.41;98.63;102191.19;5052995;28;20400;-68
2023/12/10 04:29:07;;;;;;;14.67;10.00;;;;;;;-11.54;98.96;102195.41;5052731;28;20036;-67
2023/12/10 04:31:32;;;;;;;18.37;10.53;;;;;;;-11.50;100.00;102207.41;5052758;28;20055;-67
2023/12/10 04:33:58;;;;;;;14.97;9.87;;;;;;;-11.24;99.12;102235.91;5052507;28;20037;-66
2023/12/10 04:36:23;;;;;;;17.37;11.37;;;;;;;-11.37;98.95;102213.50;5053399;28;20047;-66
2023/12/10 04:38:49;;;;;;;15.67;11.23;;;;;;;-11.23;98.71;102241.91;5051289;28;20040;-66
2023/12/10 04:41:14;;;;;;;17.83;10.30;;;;;;;-11.29;99.38;102232.41;5052959;28;20036;-68
2023/12/10 04:43:40;;;;;;;15.60;9.83;;;;;;;-11.20;99.47;102240.19;5052634;28;20080;-69
2023/12/10 04:46:06;;;;;;;19.73;12.73;;;;;;;-11.24;99.17;102228.19;5050695;28;20037;-67
2023/12/10 04:48:32;;;;;;;23.13;10.83;;;;;;;-11.19;99.09;102233.34;5052107;28;20083;-66
2023/12/10 04:50:58;;;;;;;21.02;12.80;;;;;;;-11.46;98.91;102192.88;5052245;28;20538;-68
2023/12/10 04:53:23;;;;;;;16.73;11.27;;;;;;;-11.33;99.39;102202.38;5051252;28;20119;-71
2023/12/10 04:55:49;;;;;;;16.47;9.77;;;;;;;-11.44;98.77;102197.16;5052051;28;20098;-69
2023/12/10 04:58:14;;;;;;;15.70;10.20;;;;;;;-11.22;99.75;102229.03;5051983;28;20041;-68
2023/12/10 05:00:40;;;;;;;17.00;9.50;;;;;;;-11.16;99.92;102223.94;5052163;28;20495;-66
2023/12/10 05:03:06;;;;;;;16.47;9.90;;;;;;;-11.17;100.00;102204.22;5033861;28;20423;-66
2023/12/10 05:05:31;;;;;;;17.33;10.20;;;;;;;-11.08;99.45;102204.25;5051426;28;20594;-67
2023/12/10 05:07:57;;;;;;;16.13;10.83;;;;;;;-11.04;99.10;102218.84;5052736;28;20404;-68
2023/12/10 05:10:23;;;;;;;15.53;9.77;;;;;;;-11.24;98.92;102215.31;5050656;28;20032;-67
2023/12/10 05:12:49;;;;;;;15.70;10.70;;;;;;;-12.40;100.00;102008.94;5051947;28;20071;-67
2023/12/10 05:15:15;;;;;;;19.27;10.80;;;;;;;-11.14;100.00;102213.66;5052411;28;20037;-67
2023/12/10 05:17:41;;;;;;;18.75;10.40;;;;;;;-11.08;100.00;102208.53;5052028;28;20037;-66
2023/12/10 05:20:07;;;;;;;18.80;11.90;;;;;;;-11.06;100.00;102173.41;5051597;28;20514;-69
2023/12/10 05:22:33;;;;;;;18.13;11.30;;;;;;;-10.84;99.23;102211.25;5050115;28;20036;-68
2023/12/10 05:24:59;;;;;;;21.30;11.03;;;;;;;-10.99;98.85;102209.44;5051232;28;20039;-66
2023/12/10 05:27:25;;;;;;;16.95;8.95;;;;;;;-10.98;98.95;102212.91;5051714;28;20047;-65
2023/12/10 05:29:51;;;;;;;17.33;10.23;;;;;;;-10.89;99.84;102202.66;5050774;28;20512;-66
2023/12/10 05:32:16;;;;;;;18.30;12.50;;;;;;;-10.76;99.96;102203.56;5052399;28;20759;-66
2023/12/10 05:34:42;;;;;;;17.30;10.67;;;;;;;-10.81;97.65;102192.38;5051969;28;20083;-66
2023/12/10 05:37:07;;;;;;;19.10;11.70;;;;;;;-10.93;97.65;102185.50;5051878;28;20032;-68
2023/12/10 05:39:33;;;;;;;15.90;11.53;;;;;;;-10.99;97.48;102170.84;5053062;28;20047;-67
2023/12/10 05:42:00;;;;;;;14.70;10.13;;;;;;;-10.91;97.43;102182.91;5051799;28;20098;-66
2023/12/10 05:44:26;;;;;;;13.97;9.37;;;;;;;-10.85;98.02;102201.81;5051471;28;20128;-65
2023/12/10 05:46:51;;;;;;;15.27;9.77;;;;;;;-10.84;97.32;102200.09;5050251;28;20044;-67
2023/12/10 05:49:17;;;;;;;26.83;12.17;;;;;;;-10.88;97.45;102201.81;5051256;28;20280;-66
2023/12/10 05:51:43;;;;;;;17.70;10.63;;;;;;;-11.08;97.10;102190.53;5051463;28;20036;-69
2023/12/10 05:54:08;;;;;;;17.63;9.93;;;;;;;-11.13;98.57;102189.66;5051690;28;20041;-69
2023/12/10 05:56:34;;;;;;;15.73;10.30;;;;;;;-11.13;99.09;102194.78;5053645;28;20064;-68
2023/12/10 05:59:01;;;;;;;18.57;10.63;;;;;;;-11.05;99.61;102196.56;5052014;28;20035;-68
2023/12/10 06:01:27;;;;;;;18.92;10.77;;;;;;;-10.98;100.00;102206.06;5052082;28;20499;-67
2023/12/10 06:03:52;;;;;;;18.47;12.13;;;;;;;-10.96;100.00;102209.50;5052075;28;20570;-67
2023/12/10 06:06:19;;;;;;;20.90;12.37;;;;;;;-11.12;100.00;102184.53;5051673;28;20322;-68
2023/12/10 06:08:44;;;;;;;20.33;10.70;;;;;;;-11.02;100.00;102212.00;5051187;28;20048;-69
2023/12/10 06:11:12;;;;;;;17.03;10.73;;;;;;;-11.11;99.91;102203.38;5050692;28;20033;-68
2023/12/10 06:13:38;;;;;;;19.20;11.13;;;;;;;-11.24;99.75;102188.75;5051703;28;20042;-66
2023/12/10 06:16:04;;;;;;;14.80;9.93;;;;;;;-11.22;100.00;102200.75;5051824;28;20037;-67
2023/12/10 06:18:30;;;;;;;19.58;11.15;;;;;;;-11.61;100.00;102137.06;5055031;28;20033;-66
2023/12/10 06:20:55;;;;;;;16.57;9.87;;;;;;;-11.30;100.00;102184.41;5052692;28;20025;-66
2023/12/10 06:23:21;;;;;;;18.67;10.57;;;;;;;-11.21;100.00;102199.91;5053309;28;20550;-67
2023/12/10 06:25:47;;;;;;;13.80;9.97;;;;;;;-11.26;100.00;102201.59;5054010;28;20033;-66
2023/12/10 06:28:12;;;;;;;18.63;11.57;;;;;;;-11.22;100.00;102208.47;5054850;28;20040;-70
2023/12/10 06:30:38;;;;;;;17.40;10.33;;;;;;;-11.24;99.86;102199.03;5054738;28;20033;-66
2023/12/10 06:33:03;;;;;;;18.67;11.40;;;;;;;-11.08;99.80;102216.25;5055712;28;20041;-68
2023/12/10 06:35:29;;;;;;;18.63;10.27;;;;;;;-11.05;99.58;102209.41;5053664;28;20039;-67
2023/12/10 06:37:55;;;;;;;14.87;9.77;;;;;;;-11.00;98.86;102217.16;5054695;28;20128;-68
2023/12/10 06:40:20;;;;;;;19.13;11.83;;;;;;;-10.98;98.71;102210.34;5065302;28;20356;-69
2023/12/10 06:42:46;;;;;;;18.13;10.67;;;;;;;-11.01;97.82;102206.00;5071651;28;20040;-67
2023/12/10 06:45:12;;;;;;;14.13;9.18;;;;;;;-10.95;97.39;102218.06;5060052;28;20044;-64
2023/12/10 06:47:38;;;;;;;18.63;11.82;;;;;;;-11.02;97.34;102217.16;5058736;28;20041;-65
2023/12/10 06:50:04;;;;;;;21.17;10.30;;;;;;;-11.03;98.04;102220.56;5053839;28;20052;-66
2023/12/10 06:52:30;;;;;;;24.48;12.05;;;;;;;-11.09;98.71;102192.25;5054594;28;20176;-64
2023/12/10 06:54:55;;;;;;;16.40;10.90;;;;;;;-10.96;97.49;102219.78;5055260;28;20036;-64
2023/12/10 06:57:21;;;;;;;16.17;9.10;;;;;;;-11.10;97.01;102198.25;5054347;28;20041;-65
2023/12/10 06:59:47;;;;;;;20.73;11.27;;;;;;;-11.04;97.38;102218.84;5052634;28;20483;-68
2023/12/10 07:02:13;;;;;;;16.73;10.73;;;;;;;-11.28;97.36;102182.69;5053354;28;20041;-66
2023/12/10 07:04:39;;;;;;;18.98;10.95;;;;;;;-11.05;97.75;102205.97;5066792;28;20066;-67
2023/12/10 07:07:05;;;;;;;15.77;9.47;;;;;;;-10.98;97.15;102215.47;5073926;28;20087;-65
2023/12/10 07:09:31;;;;;;;19.88;11.75;;;;;;;-11.00;96.90;102220.59;5073870;28;20052;-65
2023/12/10 07:11:57;;;;;;;16.97;10.07;;;;;;;-12.03;97.79;102050.31;5073778;28;20039;-66
2023/12/10 07:14:22;;;;;;;15.20;10.40;;;;;;;-10.92;98.79;102228.38;5073793;28;20455;-67
2023/12/10 07:16:49;;;;;;;16.47;10.23;;;;;;;-10.84;97.47;102225.84;5072695;28;20028;-68
2023/12/10 07:19:15;;;;;;;20.23;11.98;;;;;;;-10.96;97.16;102194.06;5060651;28;20057;-67
2023/12/10 07:21:40;;;;;;;16.37;10.93;;;;;;;-10.84;96.37;102202.69;5053622;28;20068;-67
2023/12/10 07:24:06;;;;;;;20.60;10.17;;;;;;;-11.03;95.67;102197.41;5050732;28;20025;-69
2023/12/10 07:26:31;;;;;;;16.87;10.50;;;;;;;-11.06;96.20;102191.41;5048584;28;20037;-68
2023/12/10 07:28:57;;;;;;;18.73;9.07;;;;;;;-11.15;96.45;102169.06;5050341;28;20036;-66
2023/12/10 07:31:23;;;;;;;20.80;10.77;;;;;;;-10.76;96.43;102212.16;5034598;28;20037;-70
2023/12/10 07:33:48;;;;;;;26.10;13.37;;;;;;;-10.89;96.02;102174.34;5051514;28;20037;-69
2023/12/10 07:36:14;;;;;;;20.00;12.30;;;;;;;-10.84;94.76;102200.97;5053035;28;20089;-71
2023/12/10 07:38:40;;;;;;;16.17;9.80;;;;;;;-10.85;95.76;102199.25;5054001;28;20416;-72
2023/12/10 07:41:06;;;;;;;19.00;12.30;;;;;;;-10.74;95.49;102202.72;5053494;28;20091;-67
2023/12/10 07:43:32;;;;;;;16.60;10.83;;;;;;;-10.67;94.98;102213.91;5051597;28;20267;-68
2023/12/10 07:45:58;;;;;;;16.73;10.77;;;;;;;-10.79;93.99;102213.84;5047689;28;20036;-69
2023/12/10 07:48:23;;;;;;;16.27;11.20;;;;;;;-10.87;94.73;102210.38;5050394;28;20032;-66
2023/12/10 07:50:49;;;;;;;21.53;10.87;;;;;;;-10.97;95.48;102219.78;5050421;28;20041;-68
2023/12/10 07:53:16;;;;;;;23.07;11.80;;;;;;;-11.01;96.21;102203.44;5051211;28;20037;-67
2023/12/10 07:55:43;;;;;;;18.02;9.80;;;;;;;-11.04;96.63;102193.13;5049845;28;20395;-67
2023/12/10 07:58:09;;;;;;;24.95;11.68;;;;;;;-10.93;96.77;102200.06;5050618;28;20029;-67
2023/12/10 08:00:34;;;;;;;18.90;12.03;;;;;;;-10.73;96.22;102221.59;5049498;28;20039;-68
2023/12/10 08:03:00;;;;;;;14.60;10.07;;;;;;;-10.85;96.28;102183.81;5051102;28;20044;-67
2023/12/10 08:05:27;;;;;;;15.37;9.97;;;;;;;-10.77;94.63;102197.56;5049548;28;20057;-66
2023/12/10 08:07:53;;;;;;;19.42;11.70;;;;;;;-10.83;94.31;102194.09;5051045;28;20045;-67
2023/12/10 08:10:19;;;;;;;17.40;10.70;;;;;;;-10.81;94.69;102215.56;5051564;28;20040;-68
2023/12/10 08:12:44;;;;;;;18.47;11.70;;;;;;;-10.98;95.59;102221.50;5051244;28;20469;-66
2023/12/10 08:15:10;;;;;;;20.03;11.33;;;;;;;-11.04;95.93;102216.28;5051031;28;20751;-68
2023/12/10 08:17:36;;;;;;;15.40;11.52;;;;;;;-11.09;95.81;102223.13;5049800;28;20029;-68
2023/12/10 08:20:02;;;;;;;19.20;10.50;;;;;;;-11.07;96.58;102215.41;5051037;28;20488;-65
2023/12/10 08:22:31;;;;;;;20.15;11.35;;;;;;;-11.00;96.33;102214.59;5033467;28;20033;-66
2023/12/10 08:24:56;;;;;;;17.98;10.80;;;;;;;-10.86;95.58;102218.09;5050876;28;20110;-70
2023/12/10 08:27:22;;;;;;;17.33;10.37;;;;;;;-10.91;94.54;102198.34;5049514;28;20155;-68
2023/12/10 08:29:48;;;;;;;17.27;11.30;;;;;;;-10.95;94.27;102207.78;5050761;28;20043;-67
2023/12/10 08:32:14;;;;;;;17.13;10.63;;;;;;;-10.90;95.17;102210.38;5050796;28;20028;-66
2023/12/10 08:34:39;;;;;;;16.50;11.37;;;;;;;-10.99;94.48;102190.56;5045648;28;20033;-67
2023/12/10 08:37:06;;;;;;;14.57;9.50;;;;;;;-10.92;94.32;102215.50;5051041;28;20037;-68
2023/12/10 08:39:32;;;;;;;18.65;11.20;;;;;;;-10.84;94.85;102200.09;5051506;28;20032;-67
2023/12/10 08:41:58;;;;;;;17.57;10.87;;;;;;;-10.85;93.58;102193.22;5052819;28;20033;-65
2023/12/10 08:44:25;;;;;;;16.83;10.50;;;;;;;-11.10;93.15;102154.50;5051012;28;20057;-67
2023/12/10 08:46:51;;;;;;;20.48;11.70;;;;;;;-10.85;93.34;102182.94;5052184;28;20086;-68
2023/12/10 08:49:17;;;;;;;18.90;11.68;;;;;;;-10.64;94.29;102190.75;5051669;28;20029;-66
2023/12/10 08:51:44;;;;;;;18.17;11.43;;;;;;;-10.92;92.84;102134.88;5052064;28;20049;-64
2023/12/10 08:54:10;;;;;;;16.80;11.05;;;;;;;-10.64;91.84;102183.91;5050951;28;20127;-69
2023/12/10 08:56:37;;;;;;;22.50;12.95;;;;;;;-10.87;91.25;102164.06;5050435;28;20094;-67
2023/12/10 08:59:03;;;;;;;16.40;11.90;;;;;;;-10.72;92.58;102200.16;5051637;28;20037;-67
2023/12/10 09:01:30;;;;;;;21.77;11.93;;;;;;;-10.85;93.41;102172.66;5051796;28;20039;-66
2023/12/10 09:03:56;;;;;;;27.58;14.23;;;;;;;-10.53;91.98;102201.94;5049901;28;20409;-70
2023/12/10 09:06:21;;;;;;;21.43;12.43;;;;;;;-10.64;91.63;102176.19;5051384;28;20053;-65
2023/12/10 09:08:48;;;;;;;22.90;15.57;;;;;;;-10.62;90.96;102171.03;5051420;28;20049;-65
2023/12/10 09:11:14;;;;;;;23.37;12.80;;;;;;;-10.57;90.48;102174.47;5051837;28;20055;-66
2023/12/10 09:13:40;;;;;;;25.35;12.15;;;;;;;-10.34;90.93;102200.31;5059087;28;20037;-66
2023/12/10 09:16:06;;;;;;;22.77;13.63;;;;;;;-10.52;89.61;102159.91;5046516;28;20474;-67
2023/12/10 09:18:32;;;;;;;20.85;12.60;;;;;;;-10.76;89.47;102116.06;5048585;28;20044;-68
2023/12/10 09:20:58;;;;;;;19.40;12.68;;;;;;;-10.44;89.30;102189.09;5030897;28;20048;-70
2023/12/10 09:23:25;;;;;;;20.70;11.83;;;;;;;-10.34;90.27;102198.59;5030580;28;20029;-69
2023/12/10 09:25:51;;;;;;;22.35;11.57;;;;;;;-10.67;90.46;102137.56;5030496;28;20037;-67
2023/12/10 09:28:17;;;;;;;14.57;10.07;;;;;;;-10.25;88.77;102202.03;5030830;28;20041;-69
2023/12/10 09:30:43;;;;;;;20.57;13.20;;;;;;;-10.51;88.56;102174.50;5029745;28;20083;-66
2023/12/10 09:33:08;;;;;;;18.98;11.75;;;;;;;-10.52;89.54;102175.34;5031515;28;20037;-67
2023/12/10 09:35:35;;;;;;;21.33;12.67;;;;;;;-10.51;89.45;102187.38;5021341;28;20036;-66
2023/12/10 09:38:03;;;;;;;17.20;11.40;;;;;;;-10.62;89.67;102150.44;5051038;28;20049;-68
2023/12/10 09:40:31;;;;;;;15.73;12.05;;;;;;;-10.58;89.67;102146.16;5051066;28;20029;-72
2023/12/10 09:42:57;;;;;;;18.33;10.63;;;;;;;-10.48;89.00;102164.19;5050025;28;20532;-67
2023/12/10 09:45:23;;;;;;;14.98;10.52;;;;;;;-10.58;88.91;102157.31;5051207;28;20041;-67
2023/12/10 09:47:50;;;;;;;21.10;11.43;;;;;;;-11.58;90.24;101998.28;5049670;28;20036;-67
2023/12/10 09:50:20;;;;;;;15.95;11.35;;;;;;;-10.59;91.07;102150.44;5050704;28;20059;-68
2023/12/10 09:52:46;;;;;;;18.48;11.65;;;;;;;-10.47;89.80;102175.34;5053487;28;20049;-68
2023/12/10 09:55:11;;;;;;;18.30;10.20;;;;;;;-10.56;90.70;102136.72;5055333;28;20349;-68
2023/12/10 09:57:38;;;;;;;15.73;10.27;;;;;;;-10.39;89.08;102171.09;5055380;28;20033;-68
2023/12/10 10:00:06;;;;;;;15.32;11.77;;;;;;;-10.56;89.03;102155.59;5055729;28;20130;-68
2023/12/10 10:02:33;;;;;;;17.83;11.90;;;;;;;-10.65;89.46;102150.44;5055638;28;20037;-68
2023/12/10 10:05:04;;;;;;;19.27;11.35;;;;;;;-10.70;90.12;102175.28;5055474;28;20040;-67
2023/12/10 10:07:30;;;;;;;20.58;12.40;;;;;;;-10.85;91.19;102155.50;5055694;28;20686;-67
2023/12/10 10:09:56;;;;;;;16.27;10.73;;;;;;;-10.88;91.15;102136.63;5056119;28;20064;-69
2023/12/10 10:12:28;;;;;;;17.73;10.67;;;;;;;-10.65;91.54;102155.56;5053974;28;20054;-66
2023/12/10 10:14:58;;;;;;;19.85;11.13;;;;;;;-10.66;90.55;102159.00;5055391;28;20037;-69
2023/12/10 10:17:30;;;;;;;18.30;10.52;;;;;;;-10.64;90.53;102163.31;5054945;28;20035;-67
2023/12/10 10:19:56;;;;;;;18.42;12.40;;;;;;;-10.80;90.59;102158.94;5055425;28;20090;-67
2023/12/10 10:22:24;;;;;;;18.13;10.43;;;;;;;-10.76;91.52;102162.38;5055413;28;20487;-66
2023/12/10 10:24:53;;;;;;;16.83;10.88;;;;;;;-11.02;91.67;102098.81;5056173;28;20037;-68
2023/12/10 10:27:19;;;;;;;16.42;12.82;;;;;;;-10.91;90.35;102108.28;5055076;28;20028;-67
2023/12/10 10:29:45;;;;;;;20.58;11.60;;;;;;;-10.86;90.24;102106.59;5055103;28;20033;-69
2023/12/10 10:32:16;;;;;;;24.80;14.13;;;;;;;-10.69;90.02;102138.41;5055546;28;20045;-69
2023/12/10 10:34:47;;;;;;;20.55;12.05;;;;;;;-10.96;90.39;102100.56;5056587;28;20033;-68
2023/12/10 10:37:15;;;;;;;22.60;12.77;;;;;;;-10.73;91.28;102123.78;5054942;28;20083;-68
2023/12/10 10:39:41;;;;;;;19.48;11.60;;;;;;;-10.63;89.68;102144.44;5054956;28;20063;-68
2023/12/10 10:42:08;;;;;;;23.08;11.93;;;;;;;-10.87;90.49;102122.91;5055051;28;20043;-69
2023/12/10 10:44:35;;;;;;;22.65;11.27;;;;;;;-10.84;91.60;102148.63;5054789;28;20036;-67
2023/12/10 10:47:04;;;;;;;23.70;12.55;;;;;;;-10.86;92.09;102140.91;5053290;28;20095;-67
2023/12/10 10:49:32;;;;;;;25.38;13.85;;;;;;;-10.89;91.76;102124.59;5055054;28;20033;-68
2023/12/10 10:52:01;;;;;;;16.17;11.32;;;;;;;-10.76;91.41;102132.34;5055114;28;20087;-67
2023/12/10 10:54:28;;;;;;;18.52;11.48;;;;;;;-10.57;91.34;102148.72;5055882;28;20048;-68
2023/12/10 10:56:54;;;;;;;18.10;11.02;;;;;;;-10.65;89.48;102140.13;5055217;28;20036;-69